sensor_id;sensor_type;location;lat;lon;timestamp;P1;durP1;ratioP1;P2;durP2;ratioP2
45039;SDS011;30778;53.574;7.770;2022-12-24T00:00:05;25.88;;;10.15;;
45039;SDS011;30778;53.574;7.770;2022-12-24T00:02:32;29.25;;;13.18;;
45039;SDS011;30778;53.574;7.770;2022-12-24T00:04:58;37.33;;;12.02;;
45039;SDS011;30778;53.574;7.770;2022-12-24T00:07:23;30.85;;;12.65;;
45039;SDS011;30778;53.574;7.770;2022-12-24T00:09:49;27.77;;;11.48;;
45039;SDS011;30778;53.574;7.770;2022-12-24T00:12:14;30.48;;;12.88;;
45039;SDS011;30778;53.574;7.770;2022-12-24T00:14:39;31.25;;;12.73;;
45039;SDS011;30778;53.574;7.770;2022-12-24T00:17:05;27.10;;;11.32;;
45039;SDS011;30778;53.574;7.770;2022-12-24T00:19:30;29.35;;;10.88;;
45039;SDS011;30778;53.574;7.770;2022-12-24T00:21:56;28.98;;;11.98;;
45039;SDS011;30778;53.574;7.770;2022-12-24T00:24:21;30.83;;;12.23;;
45039;SDS011;30778;53.574;7.770;2022-12-24T00:26:47;31.25;;;13.63;;
45039;SDS011;30778;53.574;7.770;2022-12-24T00:29:12;28.33;;;11.30;;
45039;SDS011;30778;53.574;7.770;2022-12-24T00:31:37;40.20;;;11.95;;
45039;SDS011;30778;53.574;7.770;2022-12-24T00:34:03;29.60;;;10.40;;
45039;SDS011;30778;53.574;7.770;2022-12-24T00:36:28;32.15;;;11.20;;
45039;SDS011;30778;53.574;7.770;2022-12-24T00:38:54;32.78;;;11.23;;
45039;SDS011;30778;53.574;7.770;2022-12-24T00:41:19;26.13;;;10.48;;
45039;SDS011;30778;53.574;7.770;2022-12-24T00:43:53;26.33;;;11.32;;
45039;SDS011;30778;53.574;7.770;2022-12-24T00:46:21;27.63;;;10.82;;
45039;SDS011;30778;53.574;7.770;2022-12-24T00:48:48;27.20;;;11.25;;
45039;SDS011;30778;53.574;7.770;2022-12-24T00:51:13;40.58;;;11.55;;
45039;SDS011;30778;53.574;7.770;2022-12-24T00:53:39;33.65;;;12.52;;
45039;SDS011;30778;53.574;7.770;2022-12-24T00:56:05;28.67;;;11.05;;
45039;SDS011;30778;53.574;7.770;2022-12-24T00:58:31;31.55;;;11.77;;
45039;SDS011;30778;53.574;7.770;2022-12-24T01:00:57;29.80;;;11.00;;
45039;SDS011;30778;53.574;7.770;2022-12-24T01:03:22;26.40;;;10.68;;
45039;SDS011;30778;53.574;7.770;2022-12-24T01:05:58;27.63;;;10.23;;
45039;SDS011;30778;53.574;7.770;2022-12-24T01:08:23;25.10;;;10.77;;
45039;SDS011;30778;53.574;7.770;2022-12-24T01:10:49;29.58;;;11.02;;
45039;SDS011;30778;53.574;7.770;2022-12-24T01:13:14;29.27;;;11.55;;
45039;SDS011;30778;53.574;7.770;2022-12-24T01:15:42;33.08;;;11.23;;
45039;SDS011;30778;53.574;7.770;2022-12-24T01:18:07;30.92;;;10.73;;
45039;SDS011;30778;53.574;7.770;2022-12-24T01:20:33;35.83;;;12.48;;
45039;SDS011;30778;53.574;7.770;2022-12-24T01:22:58;32.05;;;12.35;;
45039;SDS011;30778;53.574;7.770;2022-12-24T01:25:24;30.17;;;10.93;;
45039;SDS011;30778;53.574;7.770;2022-12-24T01:27:49;30.00;;;10.75;;
45039;SDS011;30778;53.574;7.770;2022-12-24T01:30:15;29.27;;;11.60;;
45039;SDS011;30778;53.574;7.770;2022-12-24T01:32:40;24.55;;;10.73;;
45039;SDS011;30778;53.574;7.770;2022-12-24T01:35:06;32.13;;;12.13;;
45039;SDS011;30778;53.574;7.770;2022-12-24T01:37:33;31.45;;;11.68;;
45039;SDS011;30778;53.574;7.770;2022-12-24T01:39:59;25.70;;;10.07;;
45039;SDS011;30778;53.574;7.770;2022-12-24T01:42:44;33.47;;;10.30;;
45039;SDS011;30778;53.574;7.770;2022-12-24T01:45:39;33.10;;;12.55;;
45039;SDS011;30778;53.574;7.770;2022-12-24T01:48:13;29.42;;;11.65;;
45039;SDS011;30778;53.574;7.770;2022-12-24T01:50:43;38.50;;;12.65;;
45039;SDS011;30778;53.574;7.770;2022-12-24T01:53:10;32.55;;;10.93;;
45039;SDS011;30778;53.574;7.770;2022-12-24T01:55:38;30.48;;;11.07;;
45039;SDS011;30778;53.574;7.770;2022-12-24T01:58:05;32.67;;;11.93;;
45039;SDS011;30778;53.574;7.770;2022-12-24T02:00:32;27.67;;;11.60;;
45039;SDS011;30778;53.574;7.770;2022-12-24T02:02:57;31.33;;;11.73;;
45039;SDS011;30778;53.574;7.770;2022-12-24T02:05:57;34.05;;;12.50;;
45039;SDS011;30778;53.574;7.770;2022-12-24T02:08:17;35.03;;;11.63;;
45039;SDS011;30778;53.574;7.770;2022-12-24T02:10:44;36.38;;;11.40;;
45039;SDS011;30778;53.574;7.770;2022-12-24T02:13:11;35.20;;;13.02;;
45039;SDS011;30778;53.574;7.770;2022-12-24T02:15:50;30.20;;;11.50;;
45039;SDS011;30778;53.574;7.770;2022-12-24T02:18:31;34.30;;;12.02;;
45039;SDS011;30778;53.574;7.770;2022-12-24T02:29:29;45.97;;;13.95;;
45039;SDS011;30778;53.574;7.770;2022-12-24T02:34:29;29.60;;;10.70;;
45039;SDS011;30778;53.574;7.770;2022-12-24T02:37:11;38.30;;;11.07;;
45039;SDS011;30778;53.574;7.770;2022-12-24T02:39:43;29.42;;;11.77;;
45039;SDS011;30778;53.574;7.770;2022-12-24T02:42:14;33.27;;;11.53;;
45039;SDS011;30778;53.574;7.770;2022-12-24T02:47:14;28.27;;;11.02;;
45039;SDS011;30778;53.574;7.770;2022-12-24T02:49:42;31.17;;;11.82;;
45039;SDS011;30778;53.574;7.770;2022-12-24T02:52:29;34.08;;;11.85;;
45039;SDS011;30778;53.574;7.770;2022-12-24T02:54:58;30.63;;;11.52;;
45039;SDS011;30778;53.574;7.770;2022-12-24T03:00:15;30.88;;;10.10;;
45039;SDS011;30778;53.574;7.770;2022-12-24T03:05:36;28.35;;;9.45;;
45039;SDS011;30778;53.574;7.770;2022-12-24T03:10:56;28.88;;;10.50;;
45039;SDS011;30778;53.574;7.770;2022-12-24T03:13:26;32.33;;;9.52;;
45039;SDS011;30778;53.574;7.770;2022-12-24T03:15:53;28.92;;;10.23;;
45039;SDS011;30778;53.574;7.770;2022-12-24T03:18:24;33.40;;;12.45;;
45039;SDS011;30778;53.574;7.770;2022-12-24T03:20:57;25.65;;;10.70;;
45039;SDS011;30778;53.574;7.770;2022-12-24T03:23:25;19.42;;;8.48;;
45039;SDS011;30778;53.574;7.770;2022-12-24T03:25:51;27.33;;;10.65;;
45039;SDS011;30778;53.574;7.770;2022-12-24T03:28:17;25.65;;;9.65;;
45039;SDS011;30778;53.574;7.770;2022-12-24T03:30:48;27.98;;;10.32;;
45039;SDS011;30778;53.574;7.770;2022-12-24T03:33:14;25.70;;;9.27;;
45039;SDS011;30778;53.574;7.770;2022-12-24T03:35:41;25.80;;;9.52;;
45039;SDS011;30778;53.574;7.770;2022-12-24T03:38:06;24.08;;;8.93;;
45039;SDS011;30778;53.574;7.770;2022-12-24T03:40:32;26.88;;;9.10;;
45039;SDS011;30778;53.574;7.770;2022-12-24T03:42:57;26.67;;;9.18;;
45039;SDS011;30778;53.574;7.770;2022-12-24T03:45:23;23.10;;;8.40;;
45039;SDS011;30778;53.574;7.770;2022-12-24T03:47:49;26.38;;;10.20;;
45039;SDS011;30778;53.574;7.770;2022-12-24T03:50:14;23.98;;;10.57;;
45039;SDS011;30778;53.574;7.770;2022-12-24T03:52:40;29.88;;;10.25;;
45039;SDS011;30778;53.574;7.770;2022-12-24T03:55:05;29.17;;;9.90;;
45039;SDS011;30778;53.574;7.770;2022-12-24T03:57:31;27.63;;;8.88;;
45039;SDS011;30778;53.574;7.770;2022-12-24T03:59:56;22.80;;;8.85;;
45039;SDS011;30778;53.574;7.770;2022-12-24T04:02:22;24.25;;;8.27;;
45039;SDS011;30778;53.574;7.770;2022-12-24T04:04:48;25.10;;;9.57;;
45039;SDS011;30778;53.574;7.770;2022-12-24T04:07:14;23.80;;;9.02;;
45039;SDS011;30778;53.574;7.770;2022-12-24T04:09:39;22.10;;;8.48;;
45039;SDS011;30778;53.574;7.770;2022-12-24T04:12:05;25.75;;;10.38;;
45039;SDS011;30778;53.574;7.770;2022-12-24T04:14:31;23.42;;;9.13;;
45039;SDS011;30778;53.574;7.770;2022-12-24T04:16:56;19.95;;;7.75;;
45039;SDS011;30778;53.574;7.770;2022-12-24T04:19:22;22.50;;;8.43;;
45039;SDS011;30778;53.574;7.770;2022-12-24T04:21:47;23.55;;;8.80;;
45039;SDS011;30778;53.574;7.770;2022-12-24T04:24:13;20.83;;;8.88;;
45039;SDS011;30778;53.574;7.770;2022-12-24T04:26:38;27.80;;;8.68;;
45039;SDS011;30778;53.574;7.770;2022-12-24T04:29:04;24.70;;;9.95;;
45039;SDS011;30778;53.574;7.770;2022-12-24T04:31:29;21.17;;;9.07;;
45039;SDS011;30778;53.574;7.770;2022-12-24T04:33:55;24.73;;;8.95;;
45039;SDS011;30778;53.574;7.770;2022-12-24T04:36:20;24.85;;;8.43;;
45039;SDS011;30778;53.574;7.770;2022-12-24T04:38:46;20.10;;;8.50;;
45039;SDS011;30778;53.574;7.770;2022-12-24T04:41:19;21.67;;;9.25;;
45039;SDS011;30778;53.574;7.770;2022-12-24T04:43:47;24.95;;;9.57;;
45039;SDS011;30778;53.574;7.770;2022-12-24T04:46:13;21.63;;;8.88;;
45039;SDS011;30778;53.574;7.770;2022-12-24T04:48:42;24.35;;;9.23;;
45039;SDS011;30778;53.574;7.770;2022-12-24T04:51:09;22.45;;;8.63;;
45039;SDS011;30778;53.574;7.770;2022-12-24T04:53:36;17.75;;;8.93;;
45039;SDS011;30778;53.574;7.770;2022-12-24T04:56:02;23.33;;;10.50;;
45039;SDS011;30778;53.574;7.770;2022-12-24T04:58:28;32.35;;;10.45;;
45039;SDS011;30778;53.574;7.770;2022-12-24T05:00:54;23.83;;;9.07;;
45039;SDS011;30778;53.574;7.770;2022-12-24T05:03:20;19.70;;;8.65;;
45039;SDS011;30778;53.574;7.770;2022-12-24T05:05:45;22.13;;;9.13;;
45039;SDS011;30778;53.574;7.770;2022-12-24T05:08:11;25.10;;;8.88;;
45039;SDS011;30778;53.574;7.770;2022-12-24T05:10:37;25.73;;;9.57;;
45039;SDS011;30778;53.574;7.770;2022-12-24T05:13:03;23.30;;;8.98;;
45039;SDS011;30778;53.574;7.770;2022-12-24T05:15:28;20.13;;;8.75;;
45039;SDS011;30778;53.574;7.770;2022-12-24T05:17:54;19.55;;;9.10;;
45039;SDS011;30778;53.574;7.770;2022-12-24T05:20:19;28.75;;;9.18;;
45039;SDS011;30778;53.574;7.770;2022-12-24T05:22:45;21.13;;;9.15;;
45039;SDS011;30778;53.574;7.770;2022-12-24T05:25:31;18.75;;;8.35;;
45039;SDS011;30778;53.574;7.770;2022-12-24T05:28:19;20.40;;;7.75;;
45039;SDS011;30778;53.574;7.770;2022-12-24T05:30:45;25.67;;;8.43;;
45039;SDS011;30778;53.574;7.770;2022-12-24T05:33:10;20.17;;;8.38;;
45039;SDS011;30778;53.574;7.770;2022-12-24T05:35:36;21.55;;;8.63;;
45039;SDS011;30778;53.574;7.770;2022-12-24T05:38:01;20.65;;;7.53;;
45039;SDS011;30778;53.574;7.770;2022-12-24T05:40:26;21.38;;;7.95;;
45039;SDS011;30778;53.574;7.770;2022-12-24T05:42:52;21.25;;;7.82;;
45039;SDS011;30778;53.574;7.770;2022-12-24T05:45:17;13.82;;;6.75;;
45039;SDS011;30778;53.574;7.770;2022-12-24T05:47:43;16.35;;;7.90;;
45039;SDS011;30778;53.574;7.770;2022-12-24T05:50:08;17.13;;;8.00;;
45039;SDS011;30778;53.574;7.770;2022-12-24T05:52:34;17.65;;;8.40;;
45039;SDS011;30778;53.574;7.770;2022-12-24T05:55:00;24.55;;;8.32;;
45039;SDS011;30778;53.574;7.770;2022-12-24T05:57:25;20.50;;;7.45;;
45039;SDS011;30778;53.574;7.770;2022-12-24T05:59:51;19.52;;;7.65;;
45039;SDS011;30778;53.574;7.770;2022-12-24T06:02:16;18.38;;;6.75;;
45039;SDS011;30778;53.574;7.770;2022-12-24T06:04:42;22.30;;;8.05;;
45039;SDS011;30778;53.574;7.770;2022-12-24T06:07:07;19.63;;;8.45;;
45039;SDS011;30778;53.574;7.770;2022-12-24T06:09:33;19.13;;;7.70;;
45039;SDS011;30778;53.574;7.770;2022-12-24T06:11:58;13.77;;;6.30;;
45039;SDS011;30778;53.574;7.770;2022-12-24T06:14:26;17.92;;;7.57;;
45039;SDS011;30778;53.574;7.770;2022-12-24T06:16:51;18.52;;;8.45;;
45039;SDS011;30778;53.574;7.770;2022-12-24T06:19:17;17.83;;;7.05;;
45039;SDS011;30778;53.574;7.770;2022-12-24T06:21:42;18.73;;;6.25;;
45039;SDS011;30778;53.574;7.770;2022-12-24T06:24:08;18.33;;;7.28;;
45039;SDS011;30778;53.574;7.770;2022-12-24T06:26:33;16.83;;;7.50;;
45039;SDS011;30778;53.574;7.770;2022-12-24T06:28:59;18.17;;;8.15;;
45039;SDS011;30778;53.574;7.770;2022-12-24T06:31:26;17.52;;;6.30;;
45039;SDS011;30778;53.574;7.770;2022-12-24T06:33:52;19.42;;;7.47;;
45039;SDS011;30778;53.574;7.770;2022-12-24T06:36:19;14.85;;;7.10;;
45039;SDS011;30778;53.574;7.770;2022-12-24T06:38:48;13.32;;;7.07;;
45039;SDS011;30778;53.574;7.770;2022-12-24T06:41:16;22.75;;;7.55;;
45039;SDS011;30778;53.574;7.770;2022-12-24T06:43:43;19.30;;;7.93;;
45039;SDS011;30778;53.574;7.770;2022-12-24T06:46:09;18.10;;;7.75;;
45039;SDS011;30778;53.574;7.770;2022-12-24T06:48:35;17.33;;;7.00;;
45039;SDS011;30778;53.574;7.770;2022-12-24T06:51:01;21.10;;;8.02;;
45039;SDS011;30778;53.574;7.770;2022-12-24T06:53:28;24.08;;;8.38;;
45039;SDS011;30778;53.574;7.770;2022-12-24T06:56:00;17.73;;;7.32;;
45039;SDS011;30778;53.574;7.770;2022-12-24T06:58:27;19.15;;;6.18;;
45039;SDS011;30778;53.574;7.770;2022-12-24T07:00:52;17.80;;;7.18;;
45039;SDS011;30778;53.574;7.770;2022-12-24T07:03:18;18.50;;;8.00;;
45039;SDS011;30778;53.574;7.770;2022-12-24T07:05:43;16.13;;;6.75;;
45039;SDS011;30778;53.574;7.770;2022-12-24T07:08:08;17.10;;;7.07;;
45039;SDS011;30778;53.574;7.770;2022-12-24T07:10:34;16.70;;;8.10;;
45039;SDS011;30778;53.574;7.770;2022-12-24T07:12:59;16.90;;;6.50;;
45039;SDS011;30778;53.574;7.770;2022-12-24T07:15:25;21.15;;;6.95;;
45039;SDS011;30778;53.574;7.770;2022-12-24T07:17:50;14.85;;;6.35;;
45039;SDS011;30778;53.574;7.770;2022-12-24T07:20:16;17.45;;;7.28;;
45039;SDS011;30778;53.574;7.770;2022-12-24T07:22:42;17.67;;;6.80;;
45039;SDS011;30778;53.574;7.770;2022-12-24T07:25:07;16.05;;;6.45;;
45039;SDS011;30778;53.574;7.770;2022-12-24T07:27:34;14.05;;;5.95;;
45039;SDS011;30778;53.574;7.770;2022-12-24T07:29:59;15.60;;;6.57;;
45039;SDS011;30778;53.574;7.770;2022-12-24T07:32:25;16.05;;;5.88;;
45039;SDS011;30778;53.574;7.770;2022-12-24T07:34:50;17.58;;;7.25;;
45039;SDS011;30778;53.574;7.770;2022-12-24T07:37:16;12.85;;;6.22;;
45039;SDS011;30778;53.574;7.770;2022-12-24T07:39:44;18.75;;;6.72;;
45039;SDS011;30778;53.574;7.770;2022-12-24T07:42:09;18.38;;;6.80;;
45039;SDS011;30778;53.574;7.770;2022-12-24T07:44:35;17.00;;;6.18;;
45039;SDS011;30778;53.574;7.770;2022-12-24T07:47:00;17.65;;;7.18;;
45039;SDS011;30778;53.574;7.770;2022-12-24T07:49:26;13.20;;;7.03;;
45039;SDS011;30778;53.574;7.770;2022-12-24T07:51:52;12.65;;;6.50;;
45039;SDS011;30778;53.574;7.770;2022-12-24T07:54:17;17.85;;;7.72;;
45039;SDS011;30778;53.574;7.770;2022-12-24T07:56:46;20.17;;;8.40;;
45039;SDS011;30778;53.574;7.770;2022-12-24T07:59:11;23.02;;;9.02;;
45039;SDS011;30778;53.574;7.770;2022-12-24T08:01:37;18.30;;;7.53;;
45039;SDS011;30778;53.574;7.770;2022-12-24T08:04:03;23.65;;;9.25;;
45039;SDS011;30778;53.574;7.770;2022-12-24T08:06:29;19.92;;;8.10;;
45039;SDS011;30778;53.574;7.770;2022-12-24T08:08:54;26.55;;;9.23;;
45039;SDS011;30778;53.574;7.770;2022-12-24T08:11:20;24.55;;;10.27;;
45039;SDS011;30778;53.574;7.770;2022-12-24T08:13:45;29.98;;;12.43;;
45039;SDS011;30778;53.574;7.770;2022-12-24T08:16:11;41.13;;;12.20;;
45039;SDS011;30778;53.574;7.770;2022-12-24T08:18:36;23.67;;;10.57;;
45039;SDS011;30778;53.574;7.770;2022-12-24T08:21:07;28.77;;;9.75;;
45039;SDS011;30778;53.574;7.770;2022-12-24T08:23:34;23.73;;;8.52;;
45039;SDS011;30778;53.574;7.770;2022-12-24T08:26:00;25.85;;;9.27;;
45039;SDS011;30778;53.574;7.770;2022-12-24T08:28:25;24.08;;;9.25;;
45039;SDS011;30778;53.574;7.770;2022-12-24T08:30:51;18.10;;;8.38;;
45039;SDS011;30778;53.574;7.770;2022-12-24T08:33:17;20.90;;;7.25;;
45039;SDS011;30778;53.574;7.770;2022-12-24T08:35:47;14.13;;;5.18;;
45039;SDS011;30778;53.574;7.770;2022-12-24T08:38:13;23.30;;;6.32;;
45039;SDS011;30778;53.574;7.770;2022-12-24T08:40:39;31.10;;;6.13;;
45039;SDS011;30778;53.574;7.770;2022-12-24T08:43:07;15.07;;;4.90;;
45039;SDS011;30778;53.574;7.770;2022-12-24T08:45:33;31.20;;;5.60;;
45039;SDS011;30778;53.574;7.770;2022-12-24T08:47:58;17.95;;;3.80;;
45039;SDS011;30778;53.574;7.770;2022-12-24T08:50:24;16.25;;;3.65;;
45039;SDS011;30778;53.574;7.770;2022-12-24T08:52:52;27.85;;;3.83;;
45039;SDS011;30778;53.574;7.770;2022-12-24T08:55:18;26.98;;;4.47;;
45039;SDS011;30778;53.574;7.770;2022-12-24T08:57:43;21.15;;;5.45;;
45039;SDS011;30778;53.574;7.770;2022-12-24T09:00:10;37.38;;;5.57;;
45039;SDS011;30778;53.574;7.770;2022-12-24T09:02:36;31.73;;;3.50;;
45039;SDS011;30778;53.574;7.770;2022-12-24T09:05:02;24.85;;;5.45;;
45039;SDS011;30778;53.574;7.770;2022-12-24T09:07:27;18.50;;;3.97;;
45039;SDS011;30778;53.574;7.770;2022-12-24T09:09:53;26.73;;;4.53;;
45039;SDS011;30778;53.574;7.770;2022-12-24T09:12:18;42.95;;;3.95;;
45039;SDS011;30778;53.574;7.770;2022-12-24T09:14:44;29.13;;;5.40;;
45039;SDS011;30778;53.574;7.770;2022-12-24T09:17:09;25.75;;;3.55;;
45039;SDS011;30778;53.574;7.770;2022-12-24T09:19:35;23.80;;;4.47;;
45039;SDS011;30778;53.574;7.770;2022-12-24T09:22:00;18.15;;;3.08;;
45039;SDS011;30778;53.574;7.770;2022-12-24T09:24:25;29.02;;;3.20;;
45039;SDS011;30778;53.574;7.770;2022-12-24T09:26:53;25.52;;;2.97;;
45039;SDS011;30778;53.574;7.770;2022-12-24T09:29:19;12.70;;;3.25;;
45039;SDS011;30778;53.574;7.770;2022-12-24T09:31:44;20.70;;;3.53;;
45039;SDS011;30778;53.574;7.770;2022-12-24T09:34:10;30.85;;;4.43;;
45039;SDS011;30778;53.574;7.770;2022-12-24T09:36:35;23.45;;;3.90;;
45039;SDS011;30778;53.574;7.770;2022-12-24T09:39:01;20.73;;;4.28;;
45039;SDS011;30778;53.574;7.770;2022-12-24T09:44:13;17.88;;;3.58;;
45039;SDS011;30778;53.574;7.770;2022-12-24T09:46:48;21.77;;;4.70;;
45039;SDS011;30778;53.574;7.770;2022-12-24T09:49:17;14.52;;;2.95;;
45039;SDS011;30778;53.574;7.770;2022-12-24T09:51:58;11.95;;;3.17;;
45039;SDS011;30778;53.574;7.770;2022-12-24T09:54:52;26.00;;;5.65;;
45039;SDS011;30778;53.574;7.770;2022-12-24T10:00:18;18.98;;;4.05;;
45039;SDS011;30778;53.574;7.770;2022-12-24T10:02:47;21.38;;;3.15;;
45039;SDS011;30778;53.574;7.770;2022-12-24T10:05:13;26.80;;;4.78;;
45039;SDS011;30778;53.574;7.770;2022-12-24T10:07:47;16.33;;;3.78;;
45039;SDS011;30778;53.574;7.770;2022-12-24T10:13:31;28.63;;;4.18;;
45039;SDS011;30778;53.574;7.770;2022-12-24T10:16:01;27.60;;;3.97;;
45039;SDS011;30778;53.574;7.770;2022-12-24T10:18:35;28.90;;;3.47;;
45039;SDS011;30778;53.574;7.770;2022-12-24T10:24:19;20.55;;;3.17;;
45039;SDS011;30778;53.574;7.770;2022-12-24T10:26:54;29.13;;;4.63;;
45039;SDS011;30778;53.574;7.770;2022-12-24T10:29:26;24.67;;;3.28;;
45039;SDS011;30778;53.574;7.770;2022-12-24T10:31:57;29.25;;;4.47;;
45039;SDS011;30778;53.574;7.770;2022-12-24T10:34:37;18.92;;;3.80;;
45039;SDS011;30778;53.574;7.770;2022-12-24T10:37:10;26.95;;;3.90;;
45039;SDS011;30778;53.574;7.770;2022-12-24T10:39:40;25.63;;;2.95;;
45039;SDS011;30778;53.574;7.770;2022-12-24T10:42:07;24.58;;;3.42;;
45039;SDS011;30778;53.574;7.770;2022-12-24T10:44:33;29.48;;;4.55;;
45039;SDS011;30778;53.574;7.770;2022-12-24T10:46:59;16.50;;;2.30;;
45039;SDS011;30778;53.574;7.770;2022-12-24T10:49:32;14.63;;;3.30;;
45039;SDS011;30778;53.574;7.770;2022-12-24T10:52:20;24.42;;;4.10;;
45039;SDS011;30778;53.574;7.770;2022-12-24T10:57:42;26.55;;;2.70;;
45039;SDS011;30778;53.574;7.770;2022-12-24T11:00:17;20.10;;;3.60;;
45039;SDS011;30778;53.574;7.770;2022-12-24T11:02:45;26.85;;;3.28;;
45039;SDS011;30778;53.574;7.770;2022-12-24T11:05:30;19.90;;;4.00;;
45039;SDS011;30778;53.574;7.770;2022-12-24T11:07:58;26.40;;;3.72;;
45039;SDS011;30778;53.574;7.770;2022-12-24T11:10:25;18.65;;;3.50;;
45039;SDS011;30778;53.574;7.770;2022-12-24T11:12:51;24.10;;;4.47;;
45039;SDS011;30778;53.574;7.770;2022-12-24T11:17:51;22.75;;;4.38;;
45039;SDS011;30778;53.574;7.770;2022-12-24T11:20:17;34.97;;;6.18;;
45039;SDS011;30778;53.574;7.770;2022-12-24T11:22:50;21.45;;;3.17;;
45039;SDS011;30778;53.574;7.770;2022-12-24T11:27:42;25.30;;;3.45;;
45039;SDS011;30778;53.574;7.770;2022-12-24T11:32:39;22.95;;;4.90;;
45039;SDS011;30778;53.574;7.770;2022-12-24T11:37:42;29.17;;;4.88;;
45039;SDS011;30778;53.574;7.770;2022-12-24T11:40:17;24.58;;;4.00;;
45039;SDS011;30778;53.574;7.770;2022-12-24T11:42:45;15.30;;;3.47;;
45039;SDS011;30778;53.574;7.770;2022-12-24T11:45:22;19.75;;;4.35;;
45039;SDS011;30778;53.574;7.770;2022-12-24T11:47:51;26.58;;;6.25;;
45039;SDS011;30778;53.574;7.770;2022-12-24T11:52:46;20.80;;;3.65;;
45039;SDS011;30778;53.574;7.770;2022-12-24T12:00:36;19.90;;;3.35;;
45039;SDS011;30778;53.574;7.770;2022-12-24T12:03:03;22.60;;;4.57;;
45039;SDS011;30778;53.574;7.770;2022-12-24T12:05:45;20.30;;;3.50;;
45039;SDS011;30778;53.574;7.770;2022-12-24T12:08:14;20.70;;;3.10;;
45039;SDS011;30778;53.574;7.770;2022-12-24T12:10:44;22.70;;;3.88;;
45039;SDS011;30778;53.574;7.770;2022-12-24T12:13:18;14.68;;;3.55;;
45039;SDS011;30778;53.574;7.770;2022-12-24T12:15:53;18.10;;;3.65;;
45039;SDS011;30778;53.574;7.770;2022-12-24T12:18:23;21.20;;;4.45;;
45039;SDS011;30778;53.574;7.770;2022-12-24T12:20:59;19.95;;;3.63;;
45039;SDS011;30778;53.574;7.770;2022-12-24T12:23:35;25.02;;;3.70;;
45039;SDS011;30778;53.574;7.770;2022-12-24T12:26:18;21.15;;;3.45;;
45039;SDS011;30778;53.574;7.770;2022-12-24T12:31:37;17.05;;;3.30;;
45039;SDS011;30778;53.574;7.770;2022-12-24T12:34:11;16.42;;;3.03;;
45039;SDS011;30778;53.574;7.770;2022-12-24T12:36:44;17.25;;;3.83;;
45039;SDS011;30778;53.574;7.770;2022-12-24T12:39:13;19.95;;;2.58;;
45039;SDS011;30778;53.574;7.770;2022-12-24T12:56:29;27.40;;;3.10;;
45039;SDS011;30778;53.574;7.770;2022-12-24T12:59:19;18.80;;;2.72;;
45039;SDS011;30778;53.574;7.770;2022-12-24T13:02:16;28.95;;;3.88;;
45039;SDS011;30778;53.574;7.770;2022-12-24T13:10:50;21.33;;;4.07;;
45039;SDS011;30778;53.574;7.770;2022-12-24T13:22:24;18.52;;;2.60;;
45039;SDS011;30778;53.574;7.770;2022-12-24T13:24:51;17.55;;;2.47;;
45039;SDS011;30778;53.574;7.770;2022-12-24T13:27:51;12.75;;;3.47;;
45039;SDS011;30778;53.574;7.770;2022-12-24T13:32:57;17.55;;;3.75;;
45039;SDS011;30778;53.574;7.770;2022-12-24T13:37:48;16.27;;;2.60;;
45039;SDS011;30778;53.574;7.770;2022-12-24T13:42:50;20.40;;;3.75;;
45039;SDS011;30778;53.574;7.770;2022-12-24T13:55:51;21.27;;;3.38;;
45039;SDS011;30778;53.574;7.770;2022-12-24T13:58:34;18.88;;;2.25;;
45039;SDS011;30778;53.574;7.770;2022-12-24T14:01:05;15.48;;;2.47;;
45039;SDS011;30778;53.574;7.770;2022-12-24T14:03:42;13.73;;;2.93;;
45039;SDS011;30778;53.574;7.770;2022-12-24T14:06:34;18.38;;;1.88;;
45039;SDS011;30778;53.574;7.770;2022-12-24T14:09:05;11.30;;;1.83;;
45039;SDS011;30778;53.574;7.770;2022-12-24T14:20:04;13.50;;;1.67;;
45039;SDS011;30778;53.574;7.770;2022-12-24T14:22:35;17.92;;;1.42;;
45039;SDS011;30778;53.574;7.770;2022-12-24T14:25:22;17.77;;;3.00;;
45039;SDS011;30778;53.574;7.770;2022-12-24T14:27:53;16.35;;;2.25;;
45039;SDS011;30778;53.574;7.770;2022-12-24T14:30:24;17.70;;;1.58;;
45039;SDS011;30778;53.574;7.770;2022-12-24T14:32:52;20.38;;;2.00;;
45039;SDS011;30778;53.574;7.770;2022-12-24T14:35:20;10.85;;;1.67;;
45039;SDS011;30778;53.574;7.770;2022-12-24T14:38:00;17.55;;;2.67;;
45039;SDS011;30778;53.574;7.770;2022-12-24T14:40:29;11.00;;;1.20;;
45039;SDS011;30778;53.574;7.770;2022-12-24T14:42:58;16.98;;;2.08;;
45039;SDS011;30778;53.574;7.770;2022-12-24T14:50:44;9.60;;;1.88;;
45039;SDS011;30778;53.574;7.770;2022-12-24T14:56:14;12.30;;;2.00;;
45039;SDS011;30778;53.574;7.770;2022-12-24T14:58:43;11.60;;;1.80;;
45039;SDS011;30778;53.574;7.770;2022-12-24T15:06:24;10.98;;;1.52;;
45039;SDS011;30778;53.574;7.770;2022-12-24T15:08:50;9.10;;;1.40;;
45039;SDS011;30778;53.574;7.770;2022-12-24T15:11:17;12.75;;;2.22;;
45039;SDS011;30778;53.574;7.770;2022-12-24T15:13:48;9.50;;;1.77;;
45039;SDS011;30778;53.574;7.770;2022-12-24T15:16:21;23.05;;;2.65;;
45039;SDS011;30778;53.574;7.770;2022-12-24T15:18:52;11.85;;;1.98;;
45039;SDS011;30778;53.574;7.770;2022-12-24T15:21:33;24.80;;;4.07;;
45039;SDS011;30778;53.574;7.770;2022-12-24T15:24:08;10.27;;;1.70;;
45039;SDS011;30778;53.574;7.770;2022-12-24T15:26:58;8.13;;;1.83;;
45039;SDS011;30778;53.574;7.770;2022-12-24T15:29:30;12.45;;;2.28;;
45039;SDS011;30778;53.574;7.770;2022-12-24T15:31:58;7.20;;;1.38;;
45039;SDS011;30778;53.574;7.770;2022-12-24T15:36:59;18.05;;;1.35;;
45039;SDS011;30778;53.574;7.770;2022-12-24T15:39:27;8.95;;;1.55;;
45039;SDS011;30778;53.574;7.770;2022-12-24T15:41:52;15.35;;;2.63;;
45039;SDS011;30778;53.574;7.770;2022-12-24T15:44:43;9.85;;;0.98;;
45039;SDS011;30778;53.574;7.770;2022-12-24T15:47:25;9.73;;;1.63;;
45039;SDS011;30778;53.574;7.770;2022-12-24T15:50:03;14.57;;;2.13;;
45039;SDS011;30778;53.574;7.770;2022-12-24T15:52:39;16.60;;;3.38;;
45039;SDS011;30778;53.574;7.770;2022-12-24T15:55:23;6.22;;;1.10;;
45039;SDS011;30778;53.574;7.770;2022-12-24T15:57:50;5.80;;;1.00;;
45039;SDS011;30778;53.574;7.770;2022-12-24T16:00:20;8.85;;;1.60;;
45039;SDS011;30778;53.574;7.770;2022-12-24T16:05:33;11.80;;;1.38;;
45039;SDS011;30778;53.574;7.770;2022-12-24T16:08:04;13.73;;;1.85;;
45039;SDS011;30778;53.574;7.770;2022-12-24T16:10:40;9.82;;;1.63;;
45039;SDS011;30778;53.574;7.770;2022-12-24T16:13:12;13.18;;;1.23;;
45039;SDS011;30778;53.574;7.770;2022-12-24T16:15:59;13.98;;;1.55;;
45039;SDS011;30778;53.574;7.770;2022-12-24T16:18:32;13.88;;;1.38;;
45039;SDS011;30778;53.574;7.770;2022-12-24T16:23:26;12.43;;;1.25;;
45039;SDS011;30778;53.574;7.770;2022-12-24T16:25:56;3.70;;;1.87;;
45039;SDS011;30778;53.574;7.770;2022-12-24T16:28:24;7.53;;;1.95;;
45039;SDS011;30778;53.574;7.770;2022-12-24T16:30:50;16.75;;;2.47;;
45039;SDS011;30778;53.574;7.770;2022-12-24T16:33:16;9.63;;;1.85;;
45039;SDS011;30778;53.574;7.770;2022-12-24T16:35:44;12.18;;;2.13;;
45039;SDS011;30778;53.574;7.770;2022-12-24T16:38:11;9.00;;;2.00;;
45039;SDS011;30778;53.574;7.770;2022-12-24T16:40:39;16.92;;;2.42;;
45039;SDS011;30778;53.574;7.770;2022-12-24T16:43:06;12.57;;;1.70;;
45039;SDS011;30778;53.574;7.770;2022-12-24T16:45:51;9.95;;;2.33;;
45039;SDS011;30778;53.574;7.770;2022-12-24T16:48:23;13.30;;;1.55;;
45039;SDS011;30778;53.574;7.770;2022-12-24T16:50:50;18.52;;;1.92;;
45039;SDS011;30778;53.574;7.770;2022-12-24T16:53:17;11.45;;;2.85;;
45039;SDS011;30778;53.574;7.770;2022-12-24T16:55:44;16.58;;;2.28;;